sensor_id;sensor_type;location;lat;lon;timestamp;P1;durP1;ratioP1;P2;durP2;ratioP2
22024;SDS011;11176;51.448;6.650;2023-03-24T00:00:46;3.63;;;1.60;;
22024;SDS011;11176;51.448;6.650;2023-03-24T00:03:13;3.90;;;1.60;;
22024;SDS011;11176;51.448;6.650;2023-03-24T00:05:42;2.58;;;1.42;;
22024;SDS011;11176;51.448;6.650;2023-03-24T00:08:10;2.88;;;1.38;;
22024;SDS011;11176;51.448;6.650;2023-03-24T00:10:36;3.13;;;1.48;;
22024;SDS011;11176;51.448;6.650;2023-03-24T00:13:02;2.80;;;1.58;;
22024;SDS011;11176;51.448;6.650;2023-03-24T00:15:29;4.57;;;1.83;;
22024;SDS011;11176;51.448;6.650;2023-03-24T00:17:56;3.25;;;1.50;;
22024;SDS011;11176;51.448;6.650;2023-03-24T00:20:24;5.10;;;1.80;;
22024;SDS011;11176;51.448;6.650;2023-03-24T00:22:51;3.33;;;1.50;;
22024;SDS011;11176;51.448;6.650;2023-03-24T00:25:24;3.00;;;1.83;;
22024;SDS011;11176;51.448;6.650;2023-03-24T00:27:53;3.70;;;1.77;;
22024;SDS011;11176;51.448;6.650;2023-03-24T00:30:21;3.72;;;1.60;;
22024;SDS011;11176;51.448;6.650;2023-03-24T00:32:50;2.75;;;1.67;;
22024;SDS011;11176;51.448;6.650;2023-03-24T00:35:17;3.35;;;1.55;;
22024;SDS011;11176;51.448;6.650;2023-03-24T00:37:44;2.83;;;1.60;;
22024;SDS011;11176;51.448;6.650;2023-03-24T00:40:12;3.58;;;1.65;;
22024;SDS011;11176;51.448;6.650;2023-03-24T00:42:42;4.35;;;1.60;;
22024;SDS011;11176;51.448;6.650;2023-03-24T00:45:13;5.47;;;1.48;;
22024;SDS011;11176;51.448;6.650;2023-03-24T00:47:43;3.72;;;1.38;;
22024;SDS011;11176;51.448;6.650;2023-03-24T00:50:14;3.00;;;1.50;;
22024;SDS011;11176;51.448;6.650;2023-03-24T00:52:45;3.30;;;1.60;;
22024;SDS011;11176;51.448;6.650;2023-03-24T00:55:14;2.92;;;1.40;;
22024;SDS011;11176;51.448;6.650;2023-03-24T00:57:42;3.25;;;1.80;;
22024;SDS011;11176;51.448;6.650;2023-03-24T01:00:17;5.22;;;1.70;;
22024;SDS011;11176;51.448;6.650;2023-03-24T01:02:46;4.85;;;1.67;;
22024;SDS011;11176;51.448;6.650;2023-03-24T01:05:19;4.60;;;1.58;;
22024;SDS011;11176;51.448;6.650;2023-03-24T01:07:47;5.15;;;1.55;;
22024;SDS011;11176;51.448;6.650;2023-03-24T01:10:19;4.20;;;1.80;;
22024;SDS011;11176;51.448;6.650;2023-03-24T01:12:52;3.47;;;1.77;;
22024;SDS011;11176;51.448;6.650;2023-03-24T01:15:25;4.32;;;1.55;;
22024;SDS011;11176;51.448;6.650;2023-03-24T01:17:54;5.45;;;1.70;;
22024;SDS011;11176;51.448;6.650;2023-03-24T01:20:23;5.35;;;1.77;;
22024;SDS011;11176;51.448;6.650;2023-03-24T01:22:50;3.08;;;1.75;;
22024;SDS011;11176;51.448;6.650;2023-03-24T01:25:19;3.22;;;1.50;;
22024;SDS011;11176;51.448;6.650;2023-03-24T01:27:48;2.88;;;1.58;;
22024;SDS011;11176;51.448;6.650;2023-03-24T01:30:17;2.70;;;1.83;;
22024;SDS011;11176;51.448;6.650;2023-03-24T01:32:46;3.72;;;1.40;;
22024;SDS011;11176;51.448;6.650;2023-03-24T01:35:12;2.35;;;1.50;;
22024;SDS011;11176;51.448;6.650;2023-03-24T01:37:39;3.25;;;1.67;;
22024;SDS011;11176;51.448;6.650;2023-03-24T01:40:06;3.25;;;2.08;;
22024;SDS011;11176;51.448;6.650;2023-03-24T01:42:37;2.40;;;1.45;;
22024;SDS011;11176;51.448;6.650;2023-03-24T01:50:42;3.15;;;1.60;;
22024;SDS011;11176;51.448;6.650;2023-03-24T01:53:12;3.42;;;1.75;;
22024;SDS011;11176;51.448;6.650;2023-03-24T01:55:38;2.60;;;1.77;;
22024;SDS011;11176;51.448;6.650;2023-03-24T01:58:06;3.15;;;1.63;;
22024;SDS011;11176;51.448;6.650;2023-03-24T02:00:48;3.33;;;2.08;;
22024;SDS011;11176;51.448;6.650;2023-03-24T02:03:44;4.05;;;1.80;;
22024;SDS011;11176;51.448;6.650;2023-03-24T02:06:12;4.53;;;1.83;;
22024;SDS011;11176;51.448;6.650;2023-03-24T02:11:13;3.40;;;2.13;;
22024;SDS011;11176;51.448;6.650;2023-03-24T02:13:49;3.15;;;1.75;;
22024;SDS011;11176;51.448;6.650;2023-03-24T02:24:57;5.10;;;2.42;;
22024;SDS011;11176;51.448;6.650;2023-03-24T02:44:50;5.45;;;3.28;;
22024;SDS011;11176;51.448;6.650;2023-03-24T02:48:05;5.43;;;3.30;;
22024;SDS011;11176;51.448;6.650;2023-03-24T02:50:49;7.10;;;3.47;;
22024;SDS011;11176;51.448;6.650;2023-03-24T02:53:29;6.03;;;3.53;;
22024;SDS011;11176;51.448;6.650;2023-03-24T03:02:17;4.80;;;2.88;;
22024;SDS011;11176;51.448;6.650;2023-03-24T03:05:02;4.78;;;2.50;;
22024;SDS011;11176;51.448;6.650;2023-03-24T03:07:31;4.53;;;2.88;;
22024;SDS011;11176;51.448;6.650;2023-03-24T03:10:04;6.35;;;2.92;;
22024;SDS011;11176;51.448;6.650;2023-03-24T03:12:38;4.30;;;2.40;;
22024;SDS011;11176;51.448;6.650;2023-03-24T03:15:10;4.50;;;2.25;;
22024;SDS011;11176;51.448;6.650;2023-03-24T03:17:44;3.13;;;1.90;;
22024;SDS011;11176;51.448;6.650;2023-03-24T03:20:22;3.65;;;2.20;;
22024;SDS011;11176;51.448;6.650;2023-03-24T03:22:51;3.45;;;2.10;;
22024;SDS011;11176;51.448;6.650;2023-03-24T03:25:26;4.35;;;2.45;;
22024;SDS011;11176;51.448;6.650;2023-03-24T03:27:59;2.88;;;2.00;;
22024;SDS011;11176;51.448;6.650;2023-03-24T03:30:31;4.78;;;2.15;;
22024;SDS011;11176;51.448;6.650;2023-03-24T03:33:04;3.40;;;1.98;;
22024;SDS011;11176;51.448;6.650;2023-03-24T03:35:37;2.97;;;2.22;;
22024;SDS011;11176;51.448;6.650;2023-03-24T03:38:15;2.50;;;1.55;;
22024;SDS011;11176;51.448;6.650;2023-03-24T03:40:52;4.35;;;2.03;;
22024;SDS011;11176;51.448;6.650;2023-03-24T03:43:26;2.70;;;1.77;;
22024;SDS011;11176;51.448;6.650;2023-03-24T03:45:53;3.65;;;1.90;;
22024;SDS011;11176;51.448;6.650;2023-03-24T03:48:26;5.30;;;1.80;;
22024;SDS011;11176;51.448;6.650;2023-03-24T03:50:55;3.83;;;1.77;;
22024;SDS011;11176;51.448;6.650;2023-03-24T03:53:46;3.13;;;1.40;;
22024;SDS011;11176;51.448;6.650;2023-03-24T03:56:17;3.03;;;1.75;;
22024;SDS011;11176;51.448;6.650;2023-03-24T03:59:26;3.10;;;1.67;;
22024;SDS011;11176;51.448;6.650;2023-03-24T04:13:38;3.15;;;1.92;;
22024;SDS011;11176;51.448;6.650;2023-03-24T04:28:50;3.03;;;1.48;;
22024;SDS011;11176;51.448;6.650;2023-03-24T04:31:40;3.75;;;1.45;;
22024;SDS011;11176;51.448;6.650;2023-03-24T04:34:57;3.03;;;1.40;;
22024;SDS011;11176;51.448;6.650;2023-03-24T04:37:05;1.90;;;1.23;;
22024;SDS011;11176;51.448;6.650;2023-03-24T04:39:45;3.13;;;1.45;;
22024;SDS011;11176;51.448;6.650;2023-03-24T04:42:17;4.57;;;1.35;;
22024;SDS011;11176;51.448;6.650;2023-03-24T04:47:46;2.92;;;1.30;;
22024;SDS011;11176;51.448;6.650;2023-03-24T04:50:36;2.40;;;1.10;;
22024;SDS011;11176;51.448;6.650;2023-03-24T04:53:13;2.80;;;1.10;;
22024;SDS011;11176;51.448;6.650;2023-03-24T04:58:36;3.85;;;1.20;;
22024;SDS011;11176;51.448;6.650;2023-03-24T05:01:03;2.40;;;1.00;;
22024;SDS011;11176;51.448;6.650;2023-03-24T05:03:31;2.42;;;1.05;;
22024;SDS011;11176;51.448;6.650;2023-03-24T05:05:57;3.78;;;1.25;;
22024;SDS011;11176;51.448;6.650;2023-03-24T05:08:24;3.05;;;1.15;;
22024;SDS011;11176;51.448;6.650;2023-03-24T05:10:51;2.85;;;1.25;;
22024;SDS011;11176;51.448;6.650;2023-03-24T05:13:18;4.45;;;1.40;;
22024;SDS011;11176;51.448;6.650;2023-03-24T05:15:51;7.53;;;1.73;;
22024;SDS011;11176;51.448;6.650;2023-03-24T05:18:25;4.95;;;1.92;;
22024;SDS011;11176;51.448;6.650;2023-03-24T05:20:55;5.15;;;1.80;;
22024;SDS011;11176;51.448;6.650;2023-03-24T05:23:21;5.60;;;1.80;;
22024;SDS011;11176;51.448;6.650;2023-03-24T05:25:48;4.75;;;1.80;;
22024;SDS011;11176;51.448;6.650;2023-03-24T05:28:17;7.45;;;1.80;;
22024;SDS011;11176;51.448;6.650;2023-03-24T05:30:45;5.20;;;1.92;;
22024;SDS011;11176;51.448;6.650;2023-03-24T05:33:29;3.95;;;1.60;;
22024;SDS011;11176;51.448;6.650;2023-03-24T05:35:57;4.72;;;1.75;;
22024;SDS011;11176;51.448;6.650;2023-03-24T05:38:24;3.85;;;1.45;;
22024;SDS011;11176;51.448;6.650;2023-03-24T05:40:58;4.68;;;1.80;;
22024;SDS011;11176;51.448;6.650;2023-03-24T05:43:31;4.68;;;1.55;;
22024;SDS011;11176;51.448;6.650;2023-03-24T05:46:08;7.32;;;1.83;;
22024;SDS011;11176;51.448;6.650;2023-03-24T05:48:35;5.88;;;1.63;;
22024;SDS011;11176;51.448;6.650;2023-03-24T05:51:18;4.45;;;1.83;;
22024;SDS011;11176;51.448;6.650;2023-03-24T05:53:50;7.05;;;1.40;;
22024;SDS011;11176;51.448;6.650;2023-03-24T05:56:21;8.80;;;1.77;;
22024;SDS011;11176;51.448;6.650;2023-03-24T05:59:08;5.70;;;1.85;;
22024;SDS011;11176;51.448;6.650;2023-03-24T06:01:53;6.28;;;1.35;;
22024;SDS011;11176;51.448;6.650;2023-03-24T06:04:37;7.47;;;1.52;;
22024;SDS011;11176;51.448;6.650;2023-03-24T06:07:11;8.63;;;1.50;;
22024;SDS011;11176;51.448;6.650;2023-03-24T06:09:41;6.28;;;1.67;;
22024;SDS011;11176;51.448;6.650;2023-03-24T06:12:09;9.18;;;2.13;;
22024;SDS011;11176;51.448;6.650;2023-03-24T06:14:42;8.38;;;1.92;;
22024;SDS011;11176;51.448;6.650;2023-03-24T06:17:11;6.60;;;1.95;;
22024;SDS011;11176;51.448;6.650;2023-03-24T06:19:44;6.03;;;1.70;;
22024;SDS011;11176;51.448;6.650;2023-03-24T06:22:22;5.57;;;1.85;;
22024;SDS011;11176;51.448;6.650;2023-03-24T06:24:49;4.88;;;1.70;;
22024;SDS011;11176;51.448;6.650;2023-03-24T06:27:16;4.80;;;1.85;;
22024;SDS011;11176;51.448;6.650;2023-03-24T06:29:43;7.93;;;1.52;;
22024;SDS011;11176;51.448;6.650;2023-03-24T06:32:12;5.72;;;1.40;;
22024;SDS011;11176;51.448;6.650;2023-03-24T06:34:42;8.43;;;1.88;;
22024;SDS011;11176;51.448;6.650;2023-03-24T06:37:33;7.13;;;1.70;;
22024;SDS011;11176;51.448;6.650;2023-03-24T06:40:03;6.88;;;1.75;;
22024;SDS011;11176;51.448;6.650;2023-03-24T06:42:40;6.57;;;1.63;;
22024;SDS011;11176;51.448;6.650;2023-03-24T06:45:07;8.85;;;1.88;;
22024;SDS011;11176;51.448;6.650;2023-03-24T06:47:34;4.88;;;1.50;;
22024;SDS011;11176;51.448;6.650;2023-03-24T06:50:01;12.40;;;2.30;;
22024;SDS011;11176;51.448;6.650;2023-03-24T06:52:28;7.25;;;1.95;;
22024;SDS011;11176;51.448;6.650;2023-03-24T06:54:55;9.90;;;1.60;;
22024;SDS011;11176;51.448;6.650;2023-03-24T06:57:25;12.48;;;2.03;;
22024;SDS011;11176;51.448;6.650;2023-03-24T07:00:11;7.00;;;1.90;;
22024;SDS011;11176;51.448;6.650;2023-03-24T07:02:52;6.72;;;2.00;;
22024;SDS011;11176;51.448;6.650;2023-03-24T07:05:20;8.88;;;1.95;;
22024;SDS011;11176;51.448;6.650;2023-03-24T07:07:47;9.95;;;1.80;;
22024;SDS011;11176;51.448;6.650;2023-03-24T07:10:37;7.65;;;1.88;;
22024;SDS011;11176;51.448;6.650;2023-03-24T07:13:05;11.68;;;1.98;;
22024;SDS011;11176;51.448;6.650;2023-03-24T07:15:34;8.40;;;1.65;;
22024;SDS011;11176;51.448;6.650;2023-03-24T07:18:02;8.90;;;2.30;;
22024;SDS011;11176;51.448;6.650;2023-03-24T07:20:41;9.70;;;2.22;;
22024;SDS011;11176;51.448;6.650;2023-03-24T07:23:13;8.48;;;2.50;;
22024;SDS011;11176;51.448;6.650;2023-03-24T07:28:53;18.73;;;5.22;;
22024;SDS011;11176;51.448;6.650;2023-03-24T07:31:34;14.48;;;2.50;;
22024;SDS011;11176;51.448;6.650;2023-03-24T07:34:06;9.98;;;2.03;;
22024;SDS011;11176;51.448;6.650;2023-03-24T07:36:36;13.05;;;2.22;;
22024;SDS011;11176;51.448;6.650;2023-03-24T07:39:04;10.52;;;2.72;;
22024;SDS011;11176;51.448;6.650;2023-03-24T07:41:33;10.77;;;2.78;;
22024;SDS011;11176;51.448;6.650;2023-03-24T07:44:04;12.32;;;2.60;;
22024;SDS011;11176;51.448;6.650;2023-03-24T07:46:35;9.15;;;3.15;;
22024;SDS011;11176;51.448;6.650;2023-03-24T07:49:02;8.90;;;2.33;;
22024;SDS011;11176;51.448;6.650;2023-03-24T07:51:50;10.52;;;2.15;;
22024;SDS011;11176;51.448;6.650;2023-03-24T07:54:20;11.25;;;2.72;;
22024;SDS011;11176;51.448;6.650;2023-03-24T07:56:47;10.27;;;2.60;;
22024;SDS011;11176;51.448;6.650;2023-03-24T07:59:14;7.72;;;1.95;;
22024;SDS011;11176;51.448;6.650;2023-03-24T08:02:03;12.07;;;2.50;;
22024;SDS011;11176;51.448;6.650;2023-03-24T08:04:49;10.45;;;2.15;;
22024;SDS011;11176;51.448;6.650;2023-03-24T08:07:45;6.70;;;2.10;;
22024;SDS011;11176;51.448;6.650;2023-03-24T08:10:21;13.18;;;2.33;;
22024;SDS011;11176;51.448;6.650;2023-03-24T08:12:50;13.50;;;2.58;;
22024;SDS011;11176;51.448;6.650;2023-03-24T08:15:17;14.27;;;2.40;;
22024;SDS011;11176;51.448;6.650;2023-03-24T08:17:44;11.10;;;2.42;;
22024;SDS011;11176;51.448;6.650;2023-03-24T08:20:12;9.48;;;2.33;;
22024;SDS011;11176;51.448;6.650;2023-03-24T08:22:40;10.35;;;2.15;;
22024;SDS011;11176;51.448;6.650;2023-03-24T08:25:09;12.23;;;2.17;;
22024;SDS011;11176;51.448;6.650;2023-03-24T08:27:36;8.85;;;2.45;;
22024;SDS011;11176;51.448;6.650;2023-03-24T08:30:05;6.22;;;2.15;;
22024;SDS011;11176;51.448;6.650;2023-03-24T08:32:33;7.78;;;2.35;;
22024;SDS011;11176;51.448;6.650;2023-03-24T08:35:00;9.95;;;2.38;;
22024;SDS011;11176;51.448;6.650;2023-03-24T08:37:30;13.63;;;2.60;;
22024;SDS011;11176;51.448;6.650;2023-03-24T08:39:56;11.32;;;2.28;;
22024;SDS011;11176;51.448;6.650;2023-03-24T08:42:23;16.23;;;2.55;;
22024;SDS011;11176;51.448;6.650;2023-03-24T08:44:51;8.63;;;2.30;;
22024;SDS011;11176;51.448;6.650;2023-03-24T08:47:17;10.73;;;2.38;;
22024;SDS011;11176;51.448;6.650;2023-03-24T08:49:44;11.73;;;2.70;;
22024;SDS011;11176;51.448;6.650;2023-03-24T08:52:10;12.88;;;2.67;;
22024;SDS011;11176;51.448;6.650;2023-03-24T08:54:37;13.93;;;2.83;;
22024;SDS011;11176;51.448;6.650;2023-03-24T08:57:03;12.38;;;2.63;;
22024;SDS011;11176;51.448;6.650;2023-03-24T08:59:30;11.63;;;2.72;;
22024;SDS011;11176;51.448;6.650;2023-03-24T09:01:56;11.57;;;2.45;;
22024;SDS011;11176;51.448;6.650;2023-03-24T09:04:23;7.30;;;2.05;;
22024;SDS011;11176;51.448;6.650;2023-03-24T09:06:49;11.93;;;2.92;;
22024;SDS011;11176;51.448;6.650;2023-03-24T09:09:18;9.95;;;2.72;;
22024;SDS011;11176;51.448;6.650;2023-03-24T09:11:45;9.23;;;2.50;;
22024;SDS011;11176;51.448;6.650;2023-03-24T09:14:11;12.05;;;2.95;;
22024;SDS011;11176;51.448;6.650;2023-03-24T09:16:38;11.25;;;2.60;;
22024;SDS011;11176;51.448;6.650;2023-03-24T09:19:04;11.60;;;2.47;;
22024;SDS011;11176;51.448;6.650;2023-03-24T09:21:32;13.38;;;2.75;;
22024;SDS011;11176;51.448;6.650;2023-03-24T09:23:58;8.98;;;2.00;;
22024;SDS011;11176;51.448;6.650;2023-03-24T09:26:25;11.35;;;2.60;;
22024;SDS011;11176;51.448;6.650;2023-03-24T09:28:52;10.55;;;2.50;;
22024;SDS011;11176;51.448;6.650;2023-03-24T09:31:18;12.55;;;2.58;;
22024;SDS011;11176;51.448;6.650;2023-03-24T09:33:45;11.63;;;2.47;;
22024;SDS011;11176;51.448;6.650;2023-03-24T09:36:11;9.00;;;2.45;;
22024;SDS011;11176;51.448;6.650;2023-03-24T09:38:38;9.73;;;1.70;;
22024;SDS011;11176;51.448;6.650;2023-03-24T09:41:10;10.35;;;2.13;;
22024;SDS011;11176;51.448;6.650;2023-03-24T09:43:50;11.38;;;2.40;;
22024;SDS011;11176;51.448;6.650;2023-03-24T09:46:36;14.05;;;2.63;;
22024;SDS011;11176;51.448;6.650;2023-03-24T09:49:08;11.20;;;2.50;;
22024;SDS011;11176;51.448;6.650;2023-03-24T09:51:39;10.80;;;2.08;;
22024;SDS011;11176;51.448;6.650;2023-03-24T09:57:01;10.30;;;2.47;;
22024;SDS011;11176;51.448;6.650;2023-03-24T09:59:35;13.48;;;2.38;;
22024;SDS011;11176;51.448;6.650;2023-03-24T10:02:17;11.18;;;1.92;;
22024;SDS011;11176;51.448;6.650;2023-03-24T10:04:45;12.48;;;2.78;;
22024;SDS011;11176;51.448;6.650;2023-03-24T10:10:01;9.68;;;2.05;;
22024;SDS011;11176;51.448;6.650;2023-03-24T10:12:34;10.07;;;2.55;;
22024;SDS011;11176;51.448;6.650;2023-03-24T10:15:19;8.68;;;1.95;;
22024;SDS011;11176;51.448;6.650;2023-03-24T10:26:45;8.02;;;1.50;;
22024;SDS011;11176;51.448;6.650;2023-03-24T10:29:24;9.13;;;1.80;;
22024;SDS011;11176;51.448;6.650;2023-03-24T10:32:08;9.15;;;1.95;;
22024;SDS011;11176;51.448;6.650;2023-03-24T10:34:40;9.32;;;1.80;;
22024;SDS011;11176;51.448;6.650;2023-03-24T10:37:10;5.38;;;1.40;;
22024;SDS011;11176;51.448;6.650;2023-03-24T10:39:39;5.45;;;1.55;;
22024;SDS011;11176;51.448;6.650;2023-03-24T10:42:14;10.07;;;2.03;;
22024;SDS011;11176;51.448;6.650;2023-03-24T10:44:47;7.28;;;1.40;;
22024;SDS011;11176;51.448;6.650;2023-03-24T10:47:17;7.13;;;1.85;;
22024;SDS011;11176;51.448;6.650;2023-03-24T10:49:55;6.13;;;1.75;;
22024;SDS011;11176;51.448;6.650;2023-03-24T10:52:24;12.65;;;2.17;;
22024;SDS011;11176;51.448;6.650;2023-03-24T10:54:52;9.48;;;1.73;;
22024;SDS011;11176;51.448;6.650;2023-03-24T10:57:21;11.18;;;1.77;;
22024;SDS011;11176;51.448;6.650;2023-03-24T10:59:51;8.57;;;1.85;;
22024;SDS011;11176;51.448;6.650;2023-03-24T11:02:22;8.10;;;1.77;;
22024;SDS011;11176;51.448;6.650;2023-03-24T11:04:53;8.30;;;2.20;;
22024;SDS011;11176;51.448;6.650;2023-03-24T11:07:24;4.70;;;1.60;;
22024;SDS011;11176;51.448;6.650;2023-03-24T11:12:36;8.70;;;1.80;;
22024;SDS011;11176;51.448;6.650;2023-03-24T11:17:55;7.25;;;1.80;;
22024;SDS011;11176;51.448;6.650;2023-03-24T11:20:29;8.52;;;1.90;;
22024;SDS011;11176;51.448;6.650;2023-03-24T11:25:46;6.00;;;1.73;;
22024;SDS011;11176;51.448;6.650;2023-03-24T11:28:20;9.32;;;1.88;;
22024;SDS011;11176;51.448;6.650;2023-03-24T11:30:52;8.00;;;1.83;;
22024;SDS011;11176;51.448;6.650;2023-03-24T11:33:25;5.13;;;1.45;;
22024;SDS011;11176;51.448;6.650;2023-03-24T11:36:05;9.95;;;1.83;;
22024;SDS011;11176;51.448;6.650;2023-03-24T11:39:13;5.60;;;1.70;;
22024;SDS011;11176;51.448;6.650;2023-03-24T11:41:43;6.32;;;1.67;;
22024;SDS011;11176;51.448;6.650;2023-03-24T11:44:22;9.60;;;1.60;;
22024;SDS011;11176;51.448;6.650;2023-03-24T11:46:51;7.13;;;1.85;;
22024;SDS011;11176;51.448;6.650;2023-03-24T11:49:21;7.20;;;1.85;;
22024;SDS011;11176;51.448;6.650;2023-03-24T11:51:52;4.72;;;1.45;;
22024;SDS011;11176;51.448;6.650;2023-03-24T11:54:22;7.40;;;1.95;;
22024;SDS011;11176;51.448;6.650;2023-03-24T11:56:56;8.38;;;1.98;;
22024;SDS011;11176;51.448;6.650;2023-03-24T11:59:32;5.55;;;1.75;;
22024;SDS011;11176;51.448;6.650;2023-03-24T12:13:47;6.55;;;1.70;;
22024;SDS011;11176;51.448;6.650;2023-03-24T12:16:19;5.70;;;1.90;;
22024;SDS011;11176;51.448;6.650;2023-03-24T12:19:00;8.60;;;1.92;;
22024;SDS011;11176;51.448;6.650;2023-03-24T12:24:58;7.68;;;1.85;;
22024;SDS011;11176;51.448;6.650;2023-03-24T12:27:36;8.68;;;1.80;;
22024;SDS011;11176;51.448;6.650;2023-03-24T12:30:33;11.90;;;1.92;;
22024;SDS011;11176;51.448;6.650;2023-03-24T12:36:09;10.05;;;1.58;;
22024;SDS011;11176;51.448;6.650;2023-03-24T12:39:09;5.88;;;1.67;;
22024;SDS011;11176;51.448;6.650;2023-03-24T12:44:44;6.35;;;1.70;;
22024;SDS011;11176;51.448;6.650;2023-03-24T12:55:42;6.88;;;1.50;;
22024;SDS011;11176;51.448;6.650;2023-03-24T12:58:16;6.85;;;2.03;;
22024;SDS011;11176;51.448;6.650;2023-03-24T13:01:15;7.43;;;1.90;;
22024;SDS011;11176;51.448;6.650;2023-03-24T13:06:33;9.55;;;2.10;;
22024;SDS011;11176;51.448;6.650;2023-03-24T13:12:05;6.43;;;2.00;;
22024;SDS011;11176;51.448;6.650;2023-03-24T13:17:32;7.55;;;1.92;;
22024;SDS011;11176;51.448;6.650;2023-03-24T13:20:06;5.95;;;1.70;;
22024;SDS011;11176;51.448;6.650;2023-03-24T13:22:39;7.82;;;2.20;;
22024;SDS011;11176;51.448;6.650;2023-03-24T13:25:16;6.07;;;1.77;;
22024;SDS011;11176;51.448;6.650;2023-03-24T13:27:52;6.68;;;1.73;;
22024;SDS011;11176;51.448;6.650;2023-03-24T13:30:34;6.93;;;2.00;;
22024;SDS011;11176;51.448;6.650;2023-03-24T13:33:10;8.30;;;1.92;;
22024;SDS011;11176;51.448;6.650;2023-03-24T13:38:39;9.20;;;1.80;;
22024;SDS011;11176;51.448;6.650;2023-03-24T13:41:19;5.32;;;1.50;;
22024;SDS011;11176;51.448;6.650;2023-03-24T13:43:49;10.88;;;2.25;;
22024;SDS011;11176;51.448;6.650;2023-03-24T13:46:24;8.73;;;1.90;;
22024;SDS011;11176;51.448;6.650;2023-03-24T13:48:51;7.18;;;1.65;;
22024;SDS011;11176;51.448;6.650;2023-03-24T13:51:31;7.80;;;1.83;;
22024;SDS011;11176;51.448;6.650;2023-03-24T13:56:40;2.88;;;1.00;;
22024;SDS011;11176;51.448;6.650;2023-03-24T13:59:24;3.67;;;0.90;;
22024;SDS011;11176;51.448;6.650;2023-03-24T14:04:49;4.03;;;0.80;;
22024;SDS011;11176;51.448;6.650;2023-03-24T14:07:30;3.92;;;1.15;;
22024;SDS011;11176;51.448;6.650;2023-03-24T14:10:41;5.00;;;1.48;;
22024;SDS011;11176;51.448;6.650;2023-03-24T14:15:39;5.07;;;1.80;;
22024;SDS011;11176;51.448;6.650;2023-03-24T14:18:40;4.65;;;1.60;;
22024;SDS011;11176;51.448;6.650;2023-03-24T14:21:00;5.10;;;1.42;;
22024;SDS011;11176;51.448;6.650;2023-03-24T14:28:51;2.75;;;1.20;;
22024;SDS011;11176;51.448;6.650;2023-03-24T14:31:20;2.47;;;1.08;;
22024;SDS011;11176;51.448;6.650;2023-03-24T14:36:24;5.53;;;1.92;;
22024;SDS011;11176;51.448;6.650;2023-03-24T14:38:56;5.95;;;1.80;;
22024;SDS011;11176;51.448;6.650;2023-03-24T14:41:48;3.67;;;0.90;;
22024;SDS011;11176;51.448;6.650;2023-03-24T14:44:50;3.50;;;1.45;;
22024;SDS011;11176;51.448;6.650;2023-03-24T14:47:18;4.30;;;1.65;;
22024;SDS011;11176;51.448;6.650;2023-03-24T14:49:47;4.32;;;1.50;;
22024;SDS011;11176;51.448;6.650;2023-03-24T14:57:42;4.43;;;1.58;;
22024;SDS011;11176;51.448;6.650;2023-03-24T15:00:21;5.30;;;1.80;;
22024;SDS011;11176;51.448;6.650;2023-03-24T15:02:55;5.10;;;2.10;;
22024;SDS011;11176;51.448;6.650;2023-03-24T15:10:48;2.97;;;0.90;;
22024;SDS011;11176;51.448;6.650;2023-03-24T15:14:01;3.28;;;1.05;;
22024;SDS011;11176;51.448;6.650;2023-03-24T15:16:23;5.07;;;1.10;;
22024;SDS011;11176;51.448;6.650;2023-03-24T15:21:39;6.53;;;1.48;;
22024;SDS011;11176;51.448;6.650;2023-03-24T15:26:48;3.42;;;1.15;;
22024;SDS011;11176;51.448;6.650;2023-03-24T15:29:37;5.13;;;1.20;;
22024;SDS011;11176;51.448;6.650;2023-03-24T15:32:18;5.15;;;1.25;;
22024;SDS011;11176;51.448;6.650;2023-03-24T15:37:20;5.15;;;1.73;;
22024;SDS011;11176;51.448;6.650;2023-03-24T15:39:57;7.32;;;3.13;;
22024;SDS011;11176;51.448;6.650;2023-03-24T15:42:40;8.50;;;2.97;;
22024;SDS011;11176;51.448;6.650;2023-03-24T15:45:19;9.30;;;3.35;;
22024;SDS011;11176;51.448;6.650;2023-03-24T15:47:50;5.78;;;2.25;;
22024;SDS011;11176;51.448;6.650;2023-03-24T15:50:32;12.98;;;4.63;;
22024;SDS011;11176;51.448;6.650;2023-03-24T15:53:21;6.45;;;2.65;;
22024;SDS011;11176;51.448;6.650;2023-03-24T15:56:00;13.82;;;3.90;;
22024;SDS011;11176;51.448;6.650;2023-03-24T15:58:41;5.53;;;1.60;;
22024;SDS011;11176;51.448;6.650;2023-03-24T16:01:12;7.57;;;2.30;;
22024;SDS011;11176;51.448;6.650;2023-03-24T16:03:42;3.97;;;1.70;;
22024;SDS011;11176;51.448;6.650;2023-03-24T16:06:14;5.45;;;1.50;;
22024;SDS011;11176;51.448;6.650;2023-03-24T16:08:49;4.68;;;1.30;;
22024;SDS011;11176;51.448;6.650;2023-03-24T16:11:15;3.63;;;1.27;;
22024;SDS011;11176;51.448;6.650;2023-03-24T16:13:43;4.38;;;1.00;;
22024;SDS011;11176;51.448;6.650;2023-03-24T16:18:46;3.25;;;1.10;;
22024;SDS011;11176;51.448;6.650;2023-03-24T16:21:15;2.47;;;0.90;;
22024;SDS011;11176;51.448;6.650;2023-03-24T16:23:42;3.42;;;1.40;;
22024;SDS011;11176;51.448;6.650;2023-03-24T16:26:12;5.25;;;0.90;;
22024;SDS011;11176;51.448;6.650;2023-03-24T16:28:40;4.80;;;2.20;;
22024;SDS011;11176;51.448;6.650;2023-03-24T16:31:07;3.75;;;1.40;;
22024;SDS011;11176;51.448;6.650;2023-03-24T16:33:43;1.98;;;0.70;;
22024;SDS011;11176;51.448;6.650;2023-03-24T16:36:10;3.25;;;0.65;;
22024;SDS011;11176;51.448;6.650;2023-03-24T16:38:37;2.15;;;0.70;;
22024;SDS011;11176;51.448;6.650;2023-03-24T16:41:04;4.72;;;1.08;;
22024;SDS011;11176;51.448;6.650;2023-03-24T16:43:30;3.28;;;1.13;;
22024;SDS011;11176;51.448;6.650;2023-03-24T16:45:59;3.92;;;1.20;;
22024;SDS011;11176;51.448;6.650;2023-03-24T16:48:25;3.17;;;1.00;;
22024;SDS011;11176;51.448;6.650;2023-03-24T16:50:52;4.75;;;1.20;;
22024;SDS011;11176;51.448;6.650;2023-03-24T16:53:20;4.03;;;1.05;;
22024;SDS011;11176;51.448;6.650;2023-03-24T16:55:46;3.80;;;0.80;;
22024;SDS011;11176;51.448;6.650;2023-03-24T16:58:14;2.10;;;0.70;;
22024;SDS011;11176;51.448;6.650;2023-03-24T17:00:41;2.72;;;0.90;;
22024;SDS011;11176;51.448;6.650;2023-03-24T17:03:09;3.25;;;1.00;;
22024;SDS011;11176;51.448;6.650;2023-03-24T17:05:38;4.75;;;1.20;;
22024;SDS011;11176;51.448;6.650;2023-03-24T17:08:08;4.60;;;1.38;;
22024;SDS011;11176;51.448;6.650;2023-03-24T17:10:35;4.45;;;1.25;;
22024;SDS011;11176;51.448;6.650;2023-03-24T17:13:02;3.22;;;1.10;;
22024;SDS011;11176;51.448;6.650;2023-03-24T17:15:29;2.78;;;0.98;;
22024;SDS011;11176;51.448;6.650;2023-03-24T17:17:56;3.05;;;1.05;;
22024;SDS011;11176;51.448;6.650;2023-03-24T17:20:23;4.90;;;1.50;;
22024;SDS011;11176;51.448;6.650;2023-03-24T17:22:50;5.18;;;1.50;;
22024;SDS011;11176;51.448;6.650;2023-03-24T17:25:20;3.85;;;1.17;;
22024;SDS011;11176;51.448;6.650;2023-03-24T17:27:48;2.65;;;0.80;;
22024;SDS011;11176;51.448;6.650;2023-03-24T17:30:17;3.83;;;0.82;;
22024;SDS011;11176;51.448;6.650;2023-03-24T17:32:45;4.22;;;1.20;;
22024;SDS011;11176;51.448;6.650;2023-03-24T17:35:13;5.22;;;0.90;;
22024;SDS011;11176;51.448;6.650;2023-03-24T17:37:41;3.67;;;0.93;;
22024;SDS011;11176;51.448;6.650;2023-03-24T17:40:08;4.18;;;0.98;;
22024;SDS011;11176;51.448;6.650;2023-03-24T17:42:36;3.55;;;0.85;;
22024;SDS011;11176;51.448;6.650;2023-03-24T17:45:04;4.57;;;1.00;;
22024;SDS011;11176;51.448;6.650;2023-03-24T17:47:33;4.70;;;1.20;;
22024;SDS011;11176;51.448;6.650;2023-03-24T17:49:59;7.32;;;1.58;;
22024;SDS011;11176;51.448;6.650;2023-03-24T17:52:26;5.63;;;1.40;;
22024;SDS011;11176;51.448;6.650;2023-03-24T17:54:52;5.55;;;1.55;;
22024;SDS011;11176;51.448;6.650;2023-03-24T17:57:19;3.95;;;1.38;;
22024;SDS011;11176;51.448;6.650;2023-03-24T17:59:46;3.75;;;1.50;;
22024;SDS011;11176;51.448;6.650;2023-03-24T18:02:12;3.50;;;0.95;;
22024;SDS011;11176;51.448;6.650;2023-03-24T18:04:38;7.00;;;1.25;;
22024;SDS011;11176;51.448;6.650;2023-03-24T18:07:05;3.67;;;1.13;;
22024;SDS011;11176;51.448;6.650;2023-03-24T18:09:32;3.97;;;0.88;;
22024;SDS011;11176;51.448;6.650;2023-03-24T18:11:59;3.95;;;1.40;;